ARG1551 SACO-SABE
Flight info
| Callsign | ARG1551 |
|---|---|
| Flight time | 0h 55m |
| Altitude | 35000 |
| Route | UTRAX1C UTRAX UW24 SNT SNT9R |
| Aircraft | B738/M-SDE2E3FGHIRWXY/LB1 |
Departure
| Time | 2026-05-08 00:58 |
|---|---|
| Airport | Ingeniero Aeronáutico Ambrosio L.V. Taravella International Airport (SACO) |
Arrival
| Time | 2026-05-08 01:53 |
|---|---|
| Airport | Aeroparque Jorge Newbery (SABE) |
| Time | Latitude | Longitude | Altitude | Speed | Heading |
|---|---|---|---|---|---|
| 2026-05-08 00:38 | -31.31501 | -64.21176 | 1614 ft | 0 kts | 269° |
| 2026-05-08 00:49 | -31.31501 | -64.21166 | 1613 ft | 2 kts | 270° |
| 2026-05-08 00:49 | -31.31501 | -64.21149 | 1613 ft | 2 kts | 269° |
| 2026-05-08 00:49 | -31.31501 | -64.21131 | 1613 ft | 2 kts | 269° |
| 2026-05-08 00:50 | -31.31500 | -64.21115 | 1613 ft | 1 kts | 269° |
| 2026-05-08 00:50 | -31.31500 | -64.21103 | 1613 ft | 2 kts | 253° |
| 2026-05-08 00:50 | -31.31492 | -64.21088 | 1613 ft | 2 kts | 223° |
| 2026-05-08 00:50 | -31.31480 | -64.21079 | 1613 ft | 2 kts | 193° |
| 2026-05-08 00:51 | -31.31471 | -64.21078 | 1613 ft | 1 kts | 178° |
| 2026-05-08 00:51 | -31.31466 | -64.21078 | 1613 ft | 0 kts | 178° |
| 2026-05-08 00:53 | -31.31470 | -64.21078 | 1613 ft | 2 kts | 178° |
| 2026-05-08 00:53 | -31.31522 | -64.21076 | 1613 ft | 11 kts | 184° |
| 2026-05-08 00:53 | -31.31615 | -64.21099 | 1613 ft | 15 kts | 183° |
| 2026-05-08 00:53 | -31.31724 | -64.21095 | 1613 ft | 14 kts | 167° |
| 2026-05-08 00:54 | -31.31798 | -64.21036 | 1613 ft | 11 kts | 159° |
| 2026-05-08 00:54 | -31.31874 | -64.21027 | 1613 ft | 10 kts | 178° |
| 2026-05-08 00:54 | -31.31945 | -64.21024 | 1613 ft | 10 kts | 178° |
| 2026-05-08 00:54 | -31.32022 | -64.21026 | 1613 ft | 11 kts | 182° |
| 2026-05-08 00:55 | -31.32110 | -64.21024 | 1613 ft | 14 kts | 179° |
| 2026-05-08 00:55 | -31.32221 | -64.21022 | 1613 ft | 18 kts | 179° |
| 2026-05-08 00:55 | -31.32352 | -64.21020 | 1613 ft | 16 kts | 178° |
| 2026-05-08 00:55 | -31.32432 | -64.20957 | 1613 ft | 12 kts | 112° |
| 2026-05-08 00:56 | -31.32428 | -64.20875 | 1613 ft | 9 kts | 46° |
| 2026-05-08 00:56 | -31.32382 | -64.20825 | 1613 ft | 10 kts | 33° |
| 2026-05-08 00:56 | -31.32307 | -64.20812 | 1613 ft | 12 kts | 356° |
| 2026-05-08 00:56 | -31.32116 | -64.20817 | 1613 ft | 58 kts | 359° |
| 2026-05-08 00:57 | -31.31478 | -64.20827 | 1614 ft | 122 kts | 358° |
| 2026-05-08 00:57 | -31.30452 | -64.20846 | 1629 ft | 168 kts | 358° |
| 2026-05-08 00:57 | -31.29292 | -64.20845 | 1782 ft | 172 kts | 0° |
| 2026-05-08 00:57 | -31.28052 | -64.20773 | 2192 ft | 177 kts | 5° |
| 2026-05-08 00:58 | -31.26832 | -64.20426 | 2517 ft | 192 kts | 24° |
| 2026-05-08 00:58 | -31.25692 | -64.19569 | 3000 ft | 202 kts | 40° |
| 2026-05-08 00:58 | -31.24791 | -64.18351 | 3675 ft | 203 kts | 57° |
| 2026-05-08 00:58 | -31.24235 | -64.16814 | 4255 ft | 205 kts | 77° |
| 2026-05-08 00:59 | -31.24071 | -64.15149 | 4825 ft | 211 kts | 88° |
| 2026-05-08 00:59 | -31.24109 | -64.13364 | 5192 ft | 229 kts | 95° |
| 2026-05-08 00:59 | -31.24413 | -64.11475 | 5615 ft | 245 kts | 107° |
| 2026-05-08 00:59 | -31.25080 | -64.09624 | 6258 ft | 251 kts | 117° |
| 2026-05-08 01:00 | -31.25946 | -64.07859 | 6949 ft | 254 kts | 121° |
| 2026-05-08 01:00 | -31.26998 | -64.06130 | 7405 ft | 270 kts | 131° |
| 2026-05-08 01:00 | -31.28354 | -64.04497 | 7761 ft | 288 kts | 136° |
| 2026-05-08 01:00 | -31.29820 | -64.02844 | 8421 ft | 295 kts | 136° |
| 2026-05-08 01:01 | -31.31300 | -64.01187 | 9169 ft | 297 kts | 136° |
| 2026-05-08 01:01 | -31.32796 | -63.99511 | 9889 ft | 301 kts | 136° |
| 2026-05-08 01:01 | -31.34318 | -63.97807 | 10456 ft | 311 kts | 136° |
| 2026-05-08 01:01 | -31.34880 | -63.97178 | 10480 ft | 321 kts | 136° |
| 2026-05-08 01:02 | -31.36557 | -63.95297 | 10667 ft | 343 kts | 136° |
| 2026-05-08 01:02 | -31.38299 | -63.93340 | 11162 ft | 354 kts | 136° |
| 2026-05-08 01:02 | -31.40085 | -63.91337 | 11847 ft | 359 kts | 136° |
| 2026-05-08 01:02 | -31.41899 | -63.89301 | 12484 ft | 365 kts | 136° |
| 2026-05-08 01:03 | -31.43748 | -63.87223 | 13185 ft | 368 kts | 136° |
| 2026-05-08 01:03 | -31.45586 | -63.85158 | 13815 ft | 373 kts | 136° |
| 2026-05-08 01:03 | -31.47469 | -63.83041 | 14455 ft | 377 kts | 136° |
| 2026-05-08 01:03 | -31.49356 | -63.80918 | 15076 ft | 381 kts | 137° |
| 2026-05-08 01:04 | -31.51293 | -63.78738 | 15686 ft | 386 kts | 137° |
| 2026-05-08 01:04 | -31.53232 | -63.76553 | 16284 ft | 390 kts | 136° |
| 2026-05-08 01:04 | -31.55170 | -63.74378 | 17039 ft | 388 kts | 136° |
| 2026-05-08 01:04 | -31.57119 | -63.72184 | 17662 ft | 391 kts | 136° |
| 2026-05-08 01:05 | -31.59070 | -63.69982 | 18250 ft | 393 kts | 136° |
| 2026-05-08 01:05 | -31.61043 | -63.67753 | 18807 ft | 397 kts | 136° |
| 2026-05-08 01:05 | -31.63053 | -63.65482 | 19354 ft | 401 kts | 136° |
| 2026-05-08 01:05 | -31.64980 | -63.63303 | 19873 ft | 404 kts | 136° |
| 2026-05-08 01:06 | -31.66998 | -63.61018 | 20404 ft | 407 kts | 136° |
| 2026-05-08 01:06 | -31.69059 | -63.58684 | 20918 ft | 411 kts | 136° |
| 2026-05-08 01:06 | -31.71035 | -63.56445 | 21396 ft | 414 kts | 136° |
| 2026-05-08 01:06 | -31.73160 | -63.54036 | 21900 ft | 418 kts | 137° |
| 2026-05-08 01:07 | -31.75291 | -63.51618 | 22394 ft | 421 kts | 137° |
| 2026-05-08 01:07 | -31.77424 | -63.49197 | 22870 ft | 425 kts | 137° |
| 2026-05-08 01:07 | -31.79537 | -63.46796 | 23337 ft | 428 kts | 137° |
| 2026-05-08 01:07 | -31.81688 | -63.44351 | 23794 ft | 431 kts | 137° |
| 2026-05-08 01:08 | -31.83838 | -63.41904 | 24244 ft | 434 kts | 137° |
| 2026-05-08 01:08 | -31.86021 | -63.39420 | 24688 ft | 437 kts | 137° |
| 2026-05-08 01:08 | -31.88132 | -63.36807 | 25111 ft | 441 kts | 131° |
| 2026-05-08 01:08 | -31.90097 | -63.34039 | 25571 ft | 443 kts | 129° |
| 2026-05-08 01:09 | -31.92033 | -63.31233 | 25941 ft | 447 kts | 129° |
| 2026-05-08 01:09 | -31.93988 | -63.28377 | 26352 ft | 450 kts | 129° |
| 2026-05-08 01:09 | -31.95956 | -63.25492 | 26761 ft | 452 kts | 129° |
| 2026-05-08 01:09 | -31.97914 | -63.22612 | 27121 ft | 456 kts | 129° |
| 2026-05-08 01:10 | -31.99899 | -63.19684 | 27509 ft | 458 kts | 129° |
| 2026-05-08 01:10 | -32.01903 | -63.16722 | 27878 ft | 461 kts | 129° |
| 2026-05-08 01:10 | -32.03895 | -63.13772 | 28238 ft | 464 kts | 129° |
| 2026-05-08 01:10 | -32.05894 | -63.10806 | 28591 ft | 466 kts | 129° |
| 2026-05-08 01:11 | -32.07909 | -63.07812 | 28939 ft | 469 kts | 129° |
| 2026-05-08 01:11 | -32.09936 | -63.04797 | 29286 ft | 472 kts | 129° |
| 2026-05-08 01:11 | -32.11971 | -63.01767 | 29621 ft | 474 kts | 129° |
| 2026-05-08 01:11 | -32.14040 | -62.98681 | 29955 ft | 477 kts | 129° |
| 2026-05-08 01:12 | -32.16081 | -62.95636 | 30284 ft | 479 kts | 129° |
| 2026-05-08 01:12 | -32.18156 | -62.92536 | 30695 ft | 479 kts | 129° |
| 2026-05-08 01:12 | -32.20204 | -62.89473 | 31115 ft | 479 kts | 129° |
| 2026-05-08 01:12 | -32.22261 | -62.86396 | 31532 ft | 478 kts | 129° |
| 2026-05-08 01:13 | -32.24313 | -62.83322 | 31947 ft | 477 kts | 129° |
| 2026-05-08 01:13 | -32.26366 | -62.80244 | 32347 ft | 477 kts | 129° |
| 2026-05-08 01:13 | -32.28419 | -62.77163 | 32734 ft | 476 kts | 129° |
| 2026-05-08 01:13 | -32.30481 | -62.74067 | 33121 ft | 476 kts | 129° |
| 2026-05-08 01:14 | -32.32531 | -62.70987 | 33492 ft | 475 kts | 129° |
| 2026-05-08 01:14 | -32.34558 | -62.67938 | 33855 ft | 474 kts | 129° |
| 2026-05-08 01:14 | -32.36568 | -62.64911 | 34198 ft | 474 kts | 129° |
| 2026-05-08 01:14 | -32.38616 | -62.61826 | 34546 ft | 473 kts | 129° |
| 2026-05-08 01:15 | -32.40638 | -62.58778 | 34875 ft | 472 kts | 129° |
| 2026-05-08 01:15 | -32.42656 | -62.55733 | 34997 ft | 475 kts | 129° |
| 2026-05-08 01:15 | -32.44681 | -62.52674 | 34987 ft | 474 kts | 129° |
| 2026-05-08 01:16 | -32.48314 | -62.47181 | 34999 ft | 481 kts | 129° |
| 2026-05-08 01:16 | -32.51646 | -62.42113 | 35002 ft | 491 kts | 130° |
| 2026-05-08 01:17 | -32.55919 | -62.35640 | 34994 ft | 505 kts | 130° |
| 2026-05-08 01:17 | -32.59430 | -62.30293 | 34980 ft | 514 kts | 130° |
| 2026-05-08 01:18 | -32.63864 | -62.23519 | 34998 ft | 526 kts | 131° |
| 2026-05-08 01:18 | -32.68420 | -62.16577 | 34990 ft | 539 kts | 128° |
| 2026-05-08 01:19 | -32.70579 | -62.12942 | 34994 ft | 542 kts | 127° |
| 2026-05-08 01:21 | -32.90020 | -61.79467 | 34993 ft | 540 kts | 127° |
| 2026-05-08 01:21 | -32.94294 | -61.72107 | 34993 ft | 540 kts | 127° |
| 2026-05-08 01:22 | -32.98555 | -61.64756 | 34993 ft | 540 kts | 127° |
| 2026-05-08 01:22 | -33.02832 | -61.57362 | 34993 ft | 540 kts | 127° |
| 2026-05-08 01:23 | -33.07088 | -61.49992 | 34993 ft | 540 kts | 127° |
| 2026-05-08 01:23 | -33.11360 | -61.42579 | 34993 ft | 540 kts | 127° |
| 2026-05-08 01:24 | -33.15622 | -61.35170 | 34993 ft | 540 kts | 127° |
| 2026-05-08 01:24 | -33.19872 | -61.27777 | 34993 ft | 540 kts | 126° |
| 2026-05-08 01:25 | -33.24128 | -61.20358 | 34993 ft | 540 kts | 126° |
| 2026-05-08 01:25 | -33.28368 | -61.12947 | 34993 ft | 540 kts | 126° |
| 2026-05-08 01:26 | -33.32564 | -61.05476 | 34993 ft | 540 kts | 126° |
| 2026-05-08 01:26 | -33.35917 | -60.99483 | 34993 ft | 540 kts | 126° |
| 2026-05-08 01:27 | -33.38507 | -60.94857 | 34993 ft | 540 kts | 126° |
| 2026-05-08 01:27 | -33.44348 | -60.84419 | 34993 ft | 540 kts | 126° |
| 2026-05-08 01:28 | -33.48540 | -60.76947 | 34994 ft | 540 kts | 126° |
| 2026-05-08 01:28 | -33.52717 | -60.69480 | 34993 ft | 540 kts | 126° |
| 2026-05-08 01:29 | -33.56884 | -60.62019 | 34993 ft | 540 kts | 126° |
| 2026-05-08 01:29 | -33.61061 | -60.54530 | 34993 ft | 540 kts | 126° |
| 2026-05-08 01:30 | -33.65233 | -60.47035 | 34993 ft | 540 kts | 126° |
| 2026-05-08 01:30 | -33.69392 | -60.39550 | 34993 ft | 540 kts | 126° |
| 2026-05-08 01:31 | -33.73553 | -60.32050 | 34993 ft | 540 kts | 126° |
| 2026-05-08 01:31 | -33.77778 | -60.24430 | 34993 ft | 540 kts | 126° |
| 2026-05-08 01:32 | -33.81917 | -60.16939 | 34851 ft | 525 kts | 126° |
| 2026-05-08 01:32 | -33.83928 | -60.13292 | 34597 ft | 516 kts | 126° |
| 2026-05-08 01:32 | -33.85929 | -60.09668 | 34348 ft | 511 kts | 126° |
| 2026-05-08 01:32 | -33.87913 | -60.06088 | 34103 ft | 513 kts | 126° |
| 2026-05-08 01:33 | -33.89890 | -60.02533 | 33866 ft | 516 kts | 126° |
| 2026-05-08 01:33 | -33.91890 | -59.98939 | 33616 ft | 518 kts | 126° |
| 2026-05-08 01:33 | -33.93896 | -59.95336 | 33365 ft | 518 kts | 126° |
| 2026-05-08 01:33 | -33.95911 | -59.91719 | 33112 ft | 517 kts | 126° |
| 2026-05-08 01:34 | -33.97900 | -59.88149 | 32848 ft | 515 kts | 126° |
| 2026-05-08 01:34 | -33.99884 | -59.84585 | 32344 ft | 512 kts | 126° |
| 2026-05-08 01:34 | -34.01884 | -59.80991 | 31650 ft | 514 kts | 126° |
| 2026-05-08 01:34 | -34.03856 | -59.77446 | 31058 ft | 513 kts | 126° |
| 2026-05-08 01:35 | -34.05847 | -59.73862 | 30372 ft | 509 kts | 125° |
| 2026-05-08 01:35 | -34.07777 | -59.70385 | 29737 ft | 498 kts | 125° |
| 2026-05-08 01:35 | -34.09693 | -59.66930 | 29094 ft | 488 kts | 125° |
| 2026-05-08 01:35 | -34.11537 | -59.63604 | 28466 ft | 478 kts | 125° |
| 2026-05-08 01:36 | -34.13357 | -59.60318 | 27844 ft | 468 kts | 125° |
| 2026-05-08 01:36 | -34.15149 | -59.57079 | 27229 ft | 459 kts | 125° |
| 2026-05-08 01:36 | -34.16904 | -59.53905 | 26654 ft | 458 kts | 125° |
| 2026-05-08 01:36 | -34.18682 | -59.50689 | 26012 ft | 462 kts | 125° |
| 2026-05-08 01:37 | -34.20456 | -59.47475 | 25398 ft | 463 kts | 124° |
| 2026-05-08 01:37 | -34.22225 | -59.44268 | 24771 ft | 460 kts | 124° |
| 2026-05-08 01:37 | -34.23968 | -59.41028 | 24158 ft | 454 kts | 123° |
| 2026-05-08 01:37 | -34.25647 | -59.37804 | 23553 ft | 447 kts | 123° |
| 2026-05-08 01:38 | -34.27300 | -59.34628 | 22948 ft | 441 kts | 122° |
| 2026-05-08 01:38 | -34.28913 | -59.31540 | 22358 ft | 434 kts | 122° |
| 2026-05-08 01:38 | -34.30507 | -59.28494 | 21775 ft | 428 kts | 122° |
| 2026-05-08 01:38 | -34.32097 | -59.25461 | 21191 ft | 422 kts | 122° |
| 2026-05-08 01:39 | -34.33637 | -59.22523 | 20627 ft | 415 kts | 122° |
| 2026-05-08 01:39 | -34.35169 | -59.19602 | 20062 ft | 409 kts | 122° |
| 2026-05-08 01:39 | -34.36690 | -59.16699 | 19500 ft | 403 kts | 122° |
| 2026-05-08 01:39 | -34.38154 | -59.13905 | 18959 ft | 397 kts | 122° |
| 2026-05-08 01:40 | -34.39636 | -59.11071 | 18409 ft | 391 kts | 122° |
| 2026-05-08 01:40 | -34.41059 | -59.08345 | 17879 ft | 386 kts | 122° |
| 2026-05-08 01:40 | -34.42473 | -59.05637 | 17350 ft | 380 kts | 122° |
| 2026-05-08 01:40 | -34.43882 | -59.02939 | 16824 ft | 375 kts | 122° |
| 2026-05-08 01:41 | -34.45264 | -59.00291 | 16305 ft | 369 kts | 122° |
| 2026-05-08 01:41 | -34.46624 | -58.97682 | 15795 ft | 364 kts | 122° |
| 2026-05-08 01:41 | -34.47950 | -58.95138 | 15294 ft | 359 kts | 122° |
| 2026-05-08 01:41 | -34.49283 | -58.92579 | 14790 ft | 353 kts | 122° |
| 2026-05-08 01:42 | -34.50578 | -58.90091 | 14300 ft | 348 kts | 122° |
| 2026-05-08 01:42 | -34.51861 | -58.87624 | 13814 ft | 343 kts | 122° |
| 2026-05-08 01:42 | -34.53122 | -58.85198 | 13334 ft | 340 kts | 122° |
| 2026-05-08 01:42 | -34.54404 | -58.82730 | 12861 ft | 346 kts | 122° |
| 2026-05-08 01:43 | -34.55664 | -58.80265 | 12351 ft | 347 kts | 119° |
| 2026-05-08 01:43 | -34.56688 | -58.77587 | 11849 ft | 347 kts | 110° |
| 2026-05-08 01:43 | -34.57476 | -58.74851 | 11364 ft | 347 kts | 108° |
| 2026-05-08 01:43 | -34.58237 | -58.72071 | 10873 ft | 347 kts | 108° |
| 2026-05-08 01:44 | -34.59000 | -58.69279 | 10376 ft | 346 kts | 108° |
| 2026-05-08 01:44 | -34.59756 | -58.66526 | 10055 ft | 340 kts | 108° |
| 2026-05-08 01:44 | -34.60500 | -58.63825 | 9962 ft | 327 kts | 108° |
| 2026-05-08 01:44 | -34.61200 | -58.61286 | 9907 ft | 315 kts | 108° |
| 2026-05-08 01:45 | -34.61883 | -58.58757 | 9526 ft | 315 kts | 108° |
| 2026-05-08 01:45 | -34.62558 | -58.56208 | 9058 ft | 316 kts | 108° |
| 2026-05-08 01:45 | -34.63231 | -58.53667 | 8654 ft | 313 kts | 108° |
| 2026-05-08 01:45 | -34.63883 | -58.51216 | 8096 ft | 309 kts | 108° |
| 2026-05-08 01:46 | -34.64544 | -58.48731 | 7446 ft | 307 kts | 108° |
| 2026-05-08 01:46 | -34.65201 | -58.46263 | 6795 ft | 306 kts | 108° |
| 2026-05-08 01:46 | -34.65853 | -58.43814 | 6144 ft | 304 kts | 108° |
| 2026-05-08 01:46 | -34.66496 | -58.41393 | 5497 ft | 302 kts | 108° |
| 2026-05-08 01:47 | -34.67138 | -58.38977 | 4847 ft | 300 kts | 108° |
| 2026-05-08 01:47 | -34.67782 | -58.36551 | 4191 ft | 298 kts | 108° |
| 2026-05-08 01:47 | -34.68414 | -58.34167 | 3542 ft | 296 kts | 107° |
| 2026-05-08 01:48 | -34.69608 | -58.29449 | 2485 ft | 284 kts | 96° |
| 2026-05-08 01:48 | -34.69332 | -58.27188 | 2215 ft | 265 kts | 60° |
| 2026-05-08 01:48 | -34.68118 | -58.25713 | 2227 ft | 235 kts | 22° |
| 2026-05-08 01:48 | -34.66636 | -58.25499 | 2243 ft | 206 kts | 349° |
| 2026-05-08 01:49 | -34.65294 | -58.25985 | 2162 ft | 193 kts | 336° |
| 2026-05-08 01:49 | -34.64214 | -58.26780 | 2014 ft | 176 kts | 318° |
| 2026-05-08 01:49 | -34.63433 | -58.27906 | 1948 ft | 175 kts | 303° |
| 2026-05-08 01:49 | -34.62797 | -58.29152 | 1909 ft | 175 kts | 301° |
| 2026-05-08 01:50 | -34.62137 | -58.30420 | 1908 ft | 177 kts | 303° |
| 2026-05-08 01:50 | -34.61473 | -58.31655 | 1801 ft | 171 kts | 303° |
| 2026-05-08 01:50 | -34.60841 | -58.32798 | 1475 ft | 156 kts | 304° |
| 2026-05-08 01:50 | -34.60204 | -58.33910 | 1245 ft | 163 kts | 305° |
| 2026-05-08 01:51 | -34.59575 | -58.35026 | 1103 ft | 161 kts | 304° |
| 2026-05-08 01:51 | -34.58947 | -58.36157 | 874 ft | 159 kts | 303° |
| 2026-05-08 01:51 | -34.58338 | -58.37270 | 689 ft | 159 kts | 304° |
| 2026-05-08 01:51 | -34.57727 | -58.38372 | 490 ft | 156 kts | 304° |
| 2026-05-08 01:52 | -34.57113 | -58.39455 | 304 ft | 155 kts | 304° |
| 2026-05-08 01:52 | -34.56506 | -58.40542 | 69 ft | 152 kts | 304° |
| 2026-05-08 01:52 | -34.55969 | -58.41500 | 28 ft | 112 kts | 304° |
| 2026-05-08 01:52 | -34.55636 | -58.42091 | 27 ft | 61 kts | 304° |
| 2026-05-08 01:53 | -34.55469 | -58.42393 | 27 ft | 28 kts | 304° |
| 2026-05-08 01:53 | -34.55411 | -58.42488 | 27 ft | 0 kts | 323° |
| 2026-05-08 01:53 | -34.55402 | -58.42493 | 27 ft | 4 kts | 342° |
| 2026-05-08 01:53 | -34.55362 | -58.42479 | 27 ft | 8 kts | 56° |
| 2026-05-08 01:54 | -34.55365 | -58.42383 | 27 ft | 13 kts | 111° |
| 2026-05-08 01:54 | -34.55416 | -58.42290 | 27 ft | 12 kts | 126° |
| 2026-05-08 01:54 | -34.55468 | -58.42208 | 27 ft | 11 kts | 128° |
| 2026-05-08 01:54 | -34.55516 | -58.42132 | 27 ft | 10 kts | 127° |
| 2026-05-08 01:55 | -34.55560 | -58.42061 | 27 ft | 10 kts | 127° |
| 2026-05-08 01:55 | -34.55600 | -58.41994 | 27 ft | 9 kts | 122° |
| 2026-05-08 01:55 | -34.55635 | -58.41929 | 27 ft | 8 kts | 125° |
| 2026-05-08 01:55 | -34.55669 | -58.41871 | 27 ft | 7 kts | 124° |
| 2026-05-08 01:56 | -34.55700 | -58.41816 | 27 ft | 7 kts | 124° |
| 2026-05-08 01:56 | -34.55728 | -58.41761 | 27 ft | 7 kts | 120° |
| 2026-05-08 01:56 | -34.55751 | -58.41708 | 27 ft | 7 kts | 116° |
| 2026-05-08 01:56 | -34.55777 | -58.41642 | 27 ft | 10 kts | 116° |
| 2026-05-08 01:57 | -34.55814 | -58.41556 | 27 ft | 12 kts | 117° |
| 2026-05-08 01:57 | -34.55853 | -58.41462 | 27 ft | 11 kts | 117° |
| 2026-05-08 01:57 | -34.55889 | -58.41376 | 27 ft | 11 kts | 116° |
| 2026-05-08 01:57 | -34.55891 | -58.41302 | 27 ft | 8 kts | 37° |
| 2026-05-08 01:58 | -34.55881 | -58.41293 | 27 ft | 0 kts | 37° |
| 2026-05-08 01:58 | -34.55877 | -58.41289 | 27 ft | 2 kts | 37° |
| 2026-05-08 01:58 | -34.55840 | -58.41286 | 27 ft | 9 kts | 327° |
| 2026-05-08 01:58 | -34.55798 | -58.41352 | 27 ft | 9 kts | 304° |
| 2026-05-08 01:59 | -34.55760 | -58.41423 | 27 ft | 11 kts | 301° |
| 2026-05-08 01:59 | -34.55724 | -58.41489 | 27 ft | 4 kts | 345° |
| 2026-05-08 01:59 | -34.55702 | -58.41488 | 27 ft | 1 kts | 7° |
| 2026-05-08 01:59 | -34.55694 | -58.41486 | 27 ft | 1 kts | 10° |
| 2026-05-08 02:00 | -34.55685 | -58.41484 | 27 ft | 1 kts | 11° |
| 2026-05-08 02:00 | -34.55680 | -58.41483 | 27 ft | 0 kts | 11° |
| 2026-05-08 02:00 | -34.55676 | -58.41482 | 27 ft | 0 kts | 12° |